createdAt,value
2022-10-07T00:03:31.249Z,100.00
2022-10-07T00:08:35.927Z,100.00
2022-10-07T00:13:39.097Z,100.00
2022-10-07T00:18:41.671Z,100.00
2022-10-07T00:23:45.453Z,100.00
2022-10-07T00:28:47.149Z,100.00
2022-10-07T00:33:49.754Z,100.00
2022-10-07T00:38:57.100Z,100.00
2022-10-07T00:44:00.010Z,100.00
2022-10-07T00:49:06.827Z,100.00
2022-10-07T00:54:17.092Z,100.00
2022-10-07T00:59:20.522Z,100.00
2022-10-07T01:04:22.187Z,100.00
2022-10-07T01:09:23.921Z,100.00
2022-10-07T01:14:40.664Z,100.00
2022-10-07T01:20:11.908Z,100.00
2022-10-07T01:25:35.184Z,100.00
2022-10-07T01:30:42.364Z,100.00
2022-10-07T01:35:47.314Z,100.00
2022-10-07T01:41:04.361Z,100.00
2022-10-07T01:46:12.423Z,100.00
2022-10-07T01:51:19.124Z,100.00
2022-10-07T01:56:43.669Z,100.00
2022-10-07T02:01:57.618Z,100.00
2022-10-07T02:07:23.646Z,100.00
2022-10-07T02:12:32.282Z,100.00
2022-10-07T02:17:38.553Z,100.00
2022-10-07T02:22:42.634Z,100.00
2022-10-07T02:27:47.604Z,100.00
2022-10-07T02:32:57.237Z,100.00
2022-10-07T02:38:07.557Z,100.00
2022-10-07T02:43:28.931Z,100.00
2022-10-07T02:48:35.547Z,100.00
2022-10-07T02:53:39.711Z,100.00
2022-10-07T02:58:45.854Z,100.00
2022-10-07T03:03:49.253Z,100.00
2022-10-07T03:08:52.008Z,100.00
2022-10-07T03:13:53.877Z,100.00
2022-10-07T03:18:55.891Z,100.00
2022-10-07T03:24:05.766Z,100.00
2022-10-07T03:29:14.401Z,100.00
2022-10-07T03:34:17.144Z,100.00
2022-10-07T03:39:22.122Z,100.00
2022-10-07T03:44:24.068Z,100.00
2022-10-07T03:49:26.797Z,100.00
2022-10-07T03:54:29.526Z,100.00
2022-10-07T03:59:33.107Z,100.00
2022-10-07T04:04:34.976Z,100.00
2022-10-07T04:09:36.608Z,100.00
2022-10-07T04:14:39.130Z,100.00
2022-10-07T04:19:41.060Z,100.00
2022-10-07T04:24:42.683Z,100.00
2022-10-07T04:29:44.335Z,100.00
2022-10-07T04:34:46.129Z,100.00
2022-10-07T04:40:00.080Z,100.00
2022-10-07T04:45:04.615Z,100.00
2022-10-07T04:50:07.949Z,100.00
2022-10-07T04:55:12.430Z,100.00
2022-10-07T05:00:15.090Z,100.00
2022-10-07T05:05:18.001Z,100.00
2022-10-07T05:10:21.211Z,100.00
2022-10-07T05:15:23.600Z,100.00
2022-10-07T05:20:27.121Z,100.00
2022-10-07T05:25:29.866Z,100.00
2022-10-07T05:30:32.704Z,100.00
2022-10-07T05:35:35.269Z,100.00
2022-10-07T05:40:37.090Z,100.00
2022-10-07T05:45:39.049Z,100.00
2022-10-07T05:50:40.830Z,100.00
2022-10-07T05:55:44.773Z,100.00
2022-10-07T06:00:58.044Z,100.00
2022-10-07T06:06:02.846Z,100.00
2022-10-07T06:11:26.065Z,100.00
2022-10-07T06:16:28.452Z,100.00
2022-10-07T06:21:31.046Z,100.00
2022-10-07T06:26:36.612Z,100.00
2022-10-07T06:31:38.340Z,100.00
2022-10-07T06:36:40.156Z,100.00
2022-10-07T06:41:41.865Z,100.00
2022-10-07T06:46:59.370Z,100.00
2022-10-07T06:52:01.332Z,100.00
2022-10-07T06:57:15.469Z,100.00
2022-10-07T07:02:25.767Z,100.00
2022-10-07T07:07:28.654Z,100.00
2022-10-07T07:12:30.311Z,100.00
2022-10-07T07:17:32.107Z,100.00
2022-10-07T07:22:34.096Z,100.00
2022-10-07T07:27:36.590Z,100.00
2022-10-07T07:32:38.372Z,100.00
2022-10-07T07:37:40.059Z,100.00
2022-10-07T07:42:43.149Z,100.00
2022-10-07T07:47:49.296Z,100.00
2022-10-07T07:52:55.220Z,100.00
2022-10-07T07:57:58.700Z,100.00
2022-10-07T08:03:00.408Z,100.00
2022-10-07T08:08:02.308Z,100.00
2022-10-07T08:13:04.304Z,100.00
2022-10-07T08:18:07.976Z,100.00
2022-10-07T08:23:09.654Z,100.00
2022-10-07T08:28:11.283Z,100.00
2022-10-07T08:33:12.974Z,100.00
2022-10-07T08:38:15.462Z,100.00
2022-10-07T08:43:19.682Z,100.00
2022-10-07T08:48:29.629Z,100.00
2022-10-07T08:53:34.426Z,100.00
2022-10-07T08:58:55.442Z,100.00
2022-10-07T09:04:44.999Z,100.00
2022-10-07T09:09:54.891Z,100.00
2022-10-07T09:14:59.252Z,100.00
2022-10-07T09:20:06.783Z,100.00
2022-10-07T09:25:11.638Z,100.00
2022-10-07T09:30:14.347Z,100.00
2022-10-07T09:35:22.056Z,100.00
2022-10-07T09:40:34.681Z,100.00
2022-10-07T09:45:36.497Z,100.00
2022-10-07T09:50:41.176Z,100.00
2022-10-07T09:55:44.885Z,100.00
2022-10-07T10:00:49.055Z,100.00
2022-10-07T10:06:00.337Z,100.00
2022-10-07T10:11:28.419Z,100.00
2022-10-07T10:16:37.625Z,100.00
2022-10-07T10:21:42.638Z,100.00
2022-10-07T10:26:56.574Z,100.00
2022-10-07T10:32:01.261Z,100.00
2022-10-07T10:37:23.659Z,100.00
2022-10-07T10:42:51.533Z,100.00
2022-10-07T10:48:02.928Z,100.00
2022-10-07T10:53:23.587Z,100.00
2022-10-07T10:58:39.259Z,100.00
2022-10-07T11:04:18.142Z,100.00
2022-10-07T11:09:50.924Z,100.00
2022-10-07T11:15:02.505Z,98.39
2022-10-07T11:20:14.500Z,93.15
2022-10-07T11:25:38.653Z,86.47
2022-10-07T11:30:52.335Z,83.32
2022-10-07T11:35:59.600Z,80.50
2022-10-07T11:41:09.746Z,82.66
2022-10-07T11:46:16.629Z,82.28
2022-10-07T11:51:30.214Z,89.87
2022-10-07T11:56:39.081Z,95.84
2022-10-07T12:01:48.023Z,94.12
2022-10-07T12:07:27.588Z,96.09
2022-10-07T12:12:45.381Z,100.00
2022-10-07T12:17:55.494Z,97.06
2022-10-07T12:23:19.083Z,100.00
2022-10-07T12:28:30.700Z,100.00
2022-10-07T12:33:56.096Z,100.00
2022-10-07T12:38:58.545Z,89.02
2022-10-07T12:44:08.547Z,88.75
2022-10-07T12:50:01.703Z,76.74
2022-10-07T12:55:07.574Z,75.09
2022-10-07T13:00:15.293Z,79.31
2022-10-07T13:06:01.951Z,80.65
2022-10-07T13:11:18.899Z,81.00
2022-10-07T13:16:45.082Z,73.17
2022-10-07T13:21:56.147Z,69.62
2022-10-07T13:26:59.270Z,55.50
2022-10-07T13:32:11.159Z,65.90
2022-10-07T13:37:32.566Z,81.61
2022-10-07T13:42:35.313Z,100.00
2022-10-07T13:47:37.597Z,100.00
2022-10-07T13:52:44.525Z,100.00
2022-10-07T13:57:46.845Z,100.00
2022-10-07T14:02:53.011Z,100.00
2022-10-07T14:07:58.224Z,100.00
2022-10-07T14:13:03.411Z,100.00
2022-10-07T14:18:06.446Z,100.00
2022-10-07T14:23:31.184Z,100.00
2022-10-07T14:28:35.927Z,100.00
2022-10-07T14:34:08.542Z,100.00
2022-10-07T14:39:33.325Z,100.00
2022-10-07T14:44:35.432Z,100.00
2022-10-07T14:49:37.173Z,100.00
2022-10-07T14:54:40.107Z,100.00
2022-10-07T14:59:42.194Z,100.00
2022-10-07T15:04:45.620Z,100.00
2022-10-07T15:09:47.644Z,100.00
2022-10-07T15:14:49.435Z,100.00
2022-10-07T15:19:53.039Z,100.00
2022-10-07T15:24:54.905Z,100.00
2022-10-07T15:29:56.651Z,100.00
2022-10-07T15:34:58.867Z,100.00
2022-10-07T15:40:00.675Z,100.00
2022-10-07T15:45:02.428Z,100.00
2022-10-07T15:50:06.010Z,100.00
2022-10-07T15:55:09.054Z,100.00
2022-10-07T16:00:11.564Z,100.00
2022-10-07T16:05:15.945Z,100.00
2022-10-07T16:10:17.697Z,100.00
2022-10-07T16:15:20.645Z,100.00
2022-10-07T16:20:22.490Z,100.00
2022-10-07T16:25:24.242Z,100.00
2022-10-07T16:30:41.128Z,100.00
2022-10-07T16:35:42.886Z,100.00
2022-10-07T16:40:52.800Z,100.00
2022-10-07T16:45:54.589Z,100.00
2022-10-07T16:50:56.341Z,100.00
2022-10-07T16:56:01.460Z,100.00
2022-10-07T17:01:14.852Z,100.00
2022-10-07T17:06:19.325Z,100.00
2022-10-07T17:11:29.071Z,100.00
2022-10-07T17:16:37.827Z,100.00
2022-10-07T17:21:41.940Z,100.00
2022-10-07T17:26:44.382Z,100.00
2022-10-07T17:31:48.391Z,100.00
2022-10-07T17:36:50.193Z,100.00
2022-10-07T17:41:51.834Z,100.00
2022-10-07T17:46:55.583Z,100.00
2022-10-07T17:51:57.510Z,100.00
2022-10-07T17:56:59.433Z,100.00
2022-10-07T18:02:03.149Z,100.00
2022-10-07T18:07:04.840Z,100.00
2022-10-07T18:12:25.203Z,100.00
2022-10-07T18:17:27.322Z,100.00
2022-10-07T18:22:28.994Z,100.00
2022-10-07T18:27:31.242Z,100.00
2022-10-07T18:32:32.972Z,100.00
2022-10-07T18:37:34.645Z,100.00
2022-10-07T18:42:37.811Z,100.00
2022-10-07T18:47:39.414Z,100.00
2022-10-07T18:52:41.251Z,100.00
2022-10-07T18:57:42.903Z,100.00
2022-10-07T19:02:46.071Z,100.00
2022-10-07T19:07:48.029Z,100.00
2022-10-07T19:13:08.306Z,100.00
2022-10-07T19:18:10.600Z,100.00
2022-10-07T19:23:12.291Z,100.00
2022-10-07T19:28:14.062Z,100.00
2022-10-07T19:33:16.119Z,100.00
2022-10-07T19:38:17.694Z,100.00
2022-10-07T19:43:19.356Z,100.00
2022-10-07T19:48:21.292Z,100.00
2022-10-07T19:53:22.908Z,100.00
2022-10-07T19:58:24.591Z,100.00
2022-10-07T20:03:26.247Z,100.00
2022-10-07T20:08:31.918Z,100.00
2022-10-07T20:13:35.739Z,100.00
2022-10-07T20:18:40.250Z,100.00
2022-10-07T20:23:44.497Z,100.00
2022-10-07T20:28:50.567Z,100.00
2022-10-07T20:33:54.645Z,100.00
2022-10-07T20:39:20.629Z,100.00
2022-10-07T20:44:22.397Z,100.00
2022-10-07T20:49:28.430Z,100.00
2022-10-07T20:54:31.272Z,100.00
2022-10-07T20:59:33.302Z,100.00
2022-10-07T21:04:34.890Z,100.00
2022-10-07T21:09:36.821Z,100.00
2022-10-07T21:14:38.427Z,100.00
2022-10-07T21:19:40.213Z,100.00
2022-10-07T21:24:41.841Z,100.00
2022-10-07T21:29:47.994Z,100.00
2022-10-07T21:34:50.549Z,100.00
2022-10-07T21:39:52.158Z,100.00
2022-10-07T21:44:53.777Z,100.00
2022-10-07T21:49:56.920Z,100.00
2022-10-07T21:54:58.553Z,100.00
2022-10-07T22:00:00.086Z,100.00
2022-10-07T22:05:01.633Z,100.00
2022-10-07T22:10:03.451Z,100.00
2022-10-07T22:15:05.430Z,100.00
2022-10-07T22:20:08.330Z,100.00
2022-10-07T22:25:09.905Z,100.00
2022-10-07T22:30:11.939Z,100.00
2022-10-07T22:35:30.442Z,100.00
2022-10-07T22:40:38.493Z,100.00
2022-10-07T22:45:40.084Z,100.00
2022-10-07T22:50:41.617Z,100.00
2022-10-07T22:55:43.799Z,100.00
2022-10-07T23:00:47.004Z,100.00
2022-10-07T23:05:50.734Z,100.00
2022-10-07T23:11:00.997Z,100.00
2022-10-07T23:16:06.490Z,100.00
2022-10-07T23:21:16.575Z,100.00
2022-10-07T23:26:24.159Z,100.00
2022-10-07T23:31:28.441Z,100.00
2022-10-07T23:36:31.219Z,100.00
2022-10-07T23:41:33.293Z,100.00
2022-10-07T23:46:36.386Z,100.00
2022-10-07T23:51:38.254Z,100.00
2022-10-07T23:56:40.009Z,100.00
